sensor_id;sensor_type;location;lat;lon;timestamp;P1;durP1;ratioP1;P2;durP2;ratioP2
72115;SDS011;59991;52.140;5.428;2024-02-14T00:00:26;5.53;;;5.03;;
72115;SDS011;59991;52.140;5.428;2024-02-14T00:00:57;6.03;;;5.53;;
72115;SDS011;59991;52.140;5.428;2024-02-14T00:01:29;6.70;;;4.50;;
72115;SDS011;59991;52.140;5.428;2024-02-14T00:02:01;5.78;;;5.32;;
72115;SDS011;59991;52.140;5.428;2024-02-14T00:02:32;5.53;;;5.07;;
72115;SDS011;59991;52.140;5.428;2024-02-14T00:03:04;9.27;;;6.57;;
72115;SDS011;59991;52.140;5.428;2024-02-14T00:03:37;5.72;;;5.32;;
72115;SDS011;59991;52.140;5.428;2024-02-14T00:04:09;5.63;;;5.13;;
72115;SDS011;59991;52.140;5.428;2024-02-14T00:04:41;6.05;;;5.55;;
72115;SDS011;59991;52.140;5.428;2024-02-14T00:05:13;5.95;;;5.38;;
72115;SDS011;59991;52.140;5.428;2024-02-14T00:05:44;6.50;;;5.90;;
72115;SDS011;59991;52.140;5.428;2024-02-14T00:06:16;5.35;;;4.93;;
72115;SDS011;59991;52.140;5.428;2024-02-14T00:06:47;6.00;;;5.53;;
72115;SDS011;59991;52.140;5.428;2024-02-14T00:07:19;5.45;;;4.95;;
72115;SDS011;59991;52.140;5.428;2024-02-14T00:08:11;5.55;;;5.10;;
72115;SDS011;59991;52.140;5.428;2024-02-14T00:08:44;5.32;;;4.90;;
72115;SDS011;59991;52.140;5.428;2024-02-14T00:09:16;5.43;;;4.70;;
72115;SDS011;59991;52.140;5.428;2024-02-14T00:09:47;4.97;;;4.60;;
72115;SDS011;59991;52.140;5.428;2024-02-14T00:10:19;4.97;;;4.57;;
72115;SDS011;59991;52.140;5.428;2024-02-14T00:10:50;5.43;;;5.03;;
72115;SDS011;59991;52.140;5.428;2024-02-14T00:11:22;6.40;;;5.90;;
72115;SDS011;59991;52.140;5.428;2024-02-14T00:11:55;5.05;;;4.65;;
72115;SDS011;59991;52.140;5.428;2024-02-14T00:12:26;5.63;;;5.23;;
72115;SDS011;59991;52.140;5.428;2024-02-14T00:12:58;5.88;;;5.30;;
72115;SDS011;59991;52.140;5.428;2024-02-14T00:13:30;6.07;;;5.68;;
72115;SDS011;59991;52.140;5.428;2024-02-14T00:14:05;5.97;;;5.47;;
72115;SDS011;59991;52.140;5.428;2024-02-14T00:14:55;4.82;;;4.38;;
72115;SDS011;59991;52.140;5.428;2024-02-14T00:15:47;5.60;;;5.30;;
72115;SDS011;59991;52.140;5.428;2024-02-14T00:16:18;5.72;;;5.32;;
72115;SDS011;59991;52.140;5.428;2024-02-14T00:16:50;5.47;;;5.07;;
72115;SDS011;59991;52.140;5.428;2024-02-14T00:17:22;5.28;;;4.78;;
72115;SDS011;59991;52.140;5.428;2024-02-14T00:17:53;5.68;;;5.03;;
72115;SDS011;59991;52.140;5.428;2024-02-14T00:18:25;4.90;;;4.50;;
72115;SDS011;59991;52.140;5.428;2024-02-14T00:18:57;5.28;;;4.88;;
72115;SDS011;59991;52.140;5.428;2024-02-14T00:19:29;4.90;;;4.50;;
72115;SDS011;59991;52.140;5.428;2024-02-14T00:20:01;6.22;;;5.72;;
72115;SDS011;59991;52.140;5.428;2024-02-14T00:20:32;5.15;;;4.80;;
72115;SDS011;59991;52.140;5.428;2024-02-14T00:21:04;5.50;;;5.00;;
72115;SDS011;59991;52.140;5.428;2024-02-14T00:22:25;5.00;;;4.70;;
72115;SDS011;59991;52.140;5.428;2024-02-14T00:24:06;4.47;;;4.18;;
72115;SDS011;59991;52.140;5.428;2024-02-14T00:24:37;4.73;;;3.83;;
72115;SDS011;59991;52.140;5.428;2024-02-14T00:25:09;4.70;;;4.40;;
72115;SDS011;59991;52.140;5.428;2024-02-14T00:25:40;5.50;;;5.00;;
72115;SDS011;59991;52.140;5.428;2024-02-14T00:26:12;5.90;;;5.50;;
72115;SDS011;59991;52.140;5.428;2024-02-14T00:26:44;5.80;;;5.30;;
72115;SDS011;59991;52.140;5.428;2024-02-14T00:27:17;6.32;;;5.78;;
72115;SDS011;59991;52.140;5.428;2024-02-14T00:27:49;5.45;;;5.05;;
72115;SDS011;59991;52.140;5.428;2024-02-14T00:28:21;5.50;;;5.20;;
72115;SDS011;59991;52.140;5.428;2024-02-14T00:28:55;5.82;;;5.32;;
72115;SDS011;59991;52.140;5.428;2024-02-14T00:29:44;5.00;;;4.50;;
72115;SDS011;59991;52.140;5.428;2024-02-14T00:30:35;5.03;;;4.73;;
72115;SDS011;59991;52.140;5.428;2024-02-14T00:31:06;5.30;;;4.90;;
72115;SDS011;59991;52.140;5.428;2024-02-14T00:31:38;5.70;;;5.30;;
72115;SDS011;59991;52.140;5.428;2024-02-14T00:32:09;5.70;;;5.25;;
72115;SDS011;59991;52.140;5.428;2024-02-14T00:32:41;6.40;;;5.80;;
72115;SDS011;59991;52.140;5.428;2024-02-14T00:33:13;5.43;;;4.70;;
72115;SDS011;59991;52.140;5.428;2024-02-14T00:33:45;6.13;;;5.72;;
72115;SDS011;59991;52.140;5.428;2024-02-14T00:34:17;6.93;;;5.88;;
72115;SDS011;59991;52.140;5.428;2024-02-14T00:34:49;6.30;;;5.90;;
72115;SDS011;59991;52.140;5.428;2024-02-14T00:35:21;5.38;;;4.97;;
72115;SDS011;59991;52.140;5.428;2024-02-14T00:35:53;6.80;;;6.30;;
72115;SDS011;59991;52.140;5.428;2024-02-14T00:36:25;5.90;;;5.50;;
72115;SDS011;59991;52.140;5.428;2024-02-14T00:36:57;6.25;;;5.75;;
72115;SDS011;59991;52.140;5.428;2024-02-14T00:37:28;6.93;;;6.43;;
72115;SDS011;59991;52.140;5.428;2024-02-14T00:38:00;6.88;;;6.30;;
72115;SDS011;59991;52.140;5.428;2024-02-14T00:38:31;6.95;;;6.35;;
72115;SDS011;59991;52.140;5.428;2024-02-14T00:39:03;6.47;;;5.97;;
72115;SDS011;59991;52.140;5.428;2024-02-14T00:39:35;6.95;;;6.35;;
72115;SDS011;59991;52.140;5.428;2024-02-14T00:40:07;7.75;;;7.00;;
72115;SDS011;59991;52.140;5.428;2024-02-14T00:40:39;8.75;;;6.53;;
72115;SDS011;59991;52.140;5.428;2024-02-14T00:41:11;7.60;;;6.60;;
72115;SDS011;59991;52.140;5.428;2024-02-14T00:41:43;7.15;;;6.55;;
72115;SDS011;59991;52.140;5.428;2024-02-14T00:43:55;6.47;;;5.85;;
72115;SDS011;59991;52.140;5.428;2024-02-14T00:44:27;7.05;;;6.13;;
72115;SDS011;59991;52.140;5.428;2024-02-14T00:44:59;6.75;;;6.13;;
72115;SDS011;59991;52.140;5.428;2024-02-14T00:45:30;6.78;;;6.18;;
72115;SDS011;59991;52.140;5.428;2024-02-14T00:46:02;6.20;;;5.80;;
72115;SDS011;59991;52.140;5.428;2024-02-14T00:46:33;7.60;;;5.93;;
72115;SDS011;59991;52.140;5.428;2024-02-14T00:47:05;8.53;;;6.10;;
72115;SDS011;59991;52.140;5.428;2024-02-14T00:47:36;6.72;;;6.18;;
72115;SDS011;59991;52.140;5.428;2024-02-14T00:48:08;6.45;;;5.95;;
72115;SDS011;59991;52.140;5.428;2024-02-14T00:49:16;5.88;;;5.38;;
72115;SDS011;59991;52.140;5.428;2024-02-14T00:49:47;6.40;;;5.80;;
72115;SDS011;59991;52.140;5.428;2024-02-14T00:50:19;6.72;;;6.13;;
72115;SDS011;59991;52.140;5.428;2024-02-14T00:51:09;6.43;;;5.90;;
72115;SDS011;59991;52.140;5.428;2024-02-14T00:51:41;6.05;;;5.55;;
72115;SDS011;59991;52.140;5.428;2024-02-14T00:52:13;6.82;;;6.32;;
72115;SDS011;59991;52.140;5.428;2024-02-14T00:53:01;6.45;;;5.80;;
72115;SDS011;59991;52.140;5.428;2024-02-14T00:53:33;6.67;;;6.07;;
72115;SDS011;59991;52.140;5.428;2024-02-14T00:54:04;7.03;;;6.40;;
72115;SDS011;59991;52.140;5.428;2024-02-14T00:54:36;6.47;;;5.97;;
72115;SDS011;59991;52.140;5.428;2024-02-14T00:55:08;7.15;;;6.55;;
72115;SDS011;59991;52.140;5.428;2024-02-14T00:55:40;6.90;;;6.32;;
72115;SDS011;59991;52.140;5.428;2024-02-14T00:56:11;7.22;;;6.63;;
72115;SDS011;59991;52.140;5.428;2024-02-14T00:56:43;6.68;;;6.18;;
72115;SDS011;59991;52.140;5.428;2024-02-14T00:57:14;7.20;;;6.60;;
72115;SDS011;59991;52.140;5.428;2024-02-14T00:57:46;7.05;;;6.47;;
72115;SDS011;59991;52.140;5.428;2024-02-14T00:58:17;7.60;;;7.00;;
72115;SDS011;59991;52.140;5.428;2024-02-14T00:58:49;7.00;;;6.50;;
72115;SDS011;59991;52.140;5.428;2024-02-14T00:59:20;7.65;;;6.97;;
72115;SDS011;59991;52.140;5.428;2024-02-14T00:59:52;8.02;;;7.25;;
72115;SDS011;59991;52.140;5.428;2024-02-14T01:00:24;8.20;;;7.60;;
72115;SDS011;59991;52.140;5.428;2024-02-14T01:01:14;7.60;;;7.10;;
72115;SDS011;59991;52.140;5.428;2024-02-14T01:01:45;6.85;;;6.30;;
72115;SDS011;59991;52.140;5.428;2024-02-14T01:02:17;7.80;;;7.20;;
72115;SDS011;59991;52.140;5.428;2024-02-14T01:02:49;8.20;;;7.50;;
72115;SDS011;59991;52.140;5.428;2024-02-14T01:03:20;8.10;;;7.35;;
72115;SDS011;59991;52.140;5.428;2024-02-14T01:03:52;8.45;;;7.80;;
72115;SDS011;59991;52.140;5.428;2024-02-14T01:04:24;8.43;;;7.70;;
72115;SDS011;59991;52.140;5.428;2024-02-14T01:04:55;8.45;;;7.75;;
72115;SDS011;59991;52.140;5.428;2024-02-14T01:05:27;7.85;;;7.30;;
72115;SDS011;59991;52.140;5.428;2024-02-14T01:05:58;8.45;;;7.72;;
72115;SDS011;59991;52.140;5.428;2024-02-14T01:06:30;8.55;;;7.78;;
72115;SDS011;59991;52.140;5.428;2024-02-14T01:07:02;9.43;;;8.02;;
72115;SDS011;59991;52.140;5.428;2024-02-14T01:07:34;8.50;;;7.20;;
72115;SDS011;59991;52.140;5.428;2024-02-14T01:08:06;9.10;;;8.30;;
72115;SDS011;59991;52.140;5.428;2024-02-14T01:08:38;8.30;;;7.68;;
72115;SDS011;59991;52.140;5.428;2024-02-14T01:09:09;11.18;;;8.27;;
72115;SDS011;59991;52.140;5.428;2024-02-14T01:09:41;8.93;;;8.13;;
72115;SDS011;59991;52.140;5.428;2024-02-14T01:10:12;9.80;;;8.70;;
72115;SDS011;59991;52.140;5.428;2024-02-14T01:10:44;10.73;;;7.97;;
72115;SDS011;59991;52.140;5.428;2024-02-14T01:11:17;9.98;;;9.07;;
72115;SDS011;59991;52.140;5.428;2024-02-14T01:12:39;7.88;;;7.13;;
72115;SDS011;59991;52.140;5.428;2024-02-14T01:13:11;7.68;;;6.97;;
72115;SDS011;59991;52.140;5.428;2024-02-14T01:13:43;9.63;;;8.73;;
72115;SDS011;59991;52.140;5.428;2024-02-14T01:14:14;8.85;;;8.15;;
72115;SDS011;59991;52.140;5.428;2024-02-14T01:15:36;8.17;;;7.53;;
72115;SDS011;59991;52.140;5.428;2024-02-14T01:16:08;10.00;;;7.93;;
72115;SDS011;59991;52.140;5.428;2024-02-14T01:16:45;10.23;;;7.97;;
72115;SDS011;59991;52.140;5.428;2024-02-14T01:17:16;8.65;;;7.85;;
72115;SDS011;59991;52.140;5.428;2024-02-14T01:17:48;9.35;;;8.52;;
72115;SDS011;59991;52.140;5.428;2024-02-14T01:18:20;8.57;;;7.97;;
72115;SDS011;59991;52.140;5.428;2024-02-14T01:18:51;8.48;;;7.88;;
72115;SDS011;59991;52.140;5.428;2024-02-14T01:19:40;8.23;;;7.30;;
72115;SDS011;59991;52.140;5.428;2024-02-14T01:20:12;8.77;;;8.07;;
72115;SDS011;59991;52.140;5.428;2024-02-14T01:20:43;9.30;;;8.50;;
72115;SDS011;59991;52.140;5.428;2024-02-14T01:21:15;9.13;;;8.33;;
72115;SDS011;59991;52.140;5.428;2024-02-14T01:21:46;9.27;;;8.57;;
72115;SDS011;59991;52.140;5.428;2024-02-14T01:22:54;9.05;;;7.50;;
72115;SDS011;59991;52.140;5.428;2024-02-14T01:23:25;9.40;;;8.43;;
72115;SDS011;59991;52.140;5.428;2024-02-14T01:23:57;8.18;;;7.45;;
72115;SDS011;59991;52.140;5.428;2024-02-14T01:24:29;10.85;;;8.80;;
72115;SDS011;59991;52.140;5.428;2024-02-14T01:25:01;9.73;;;8.82;;
72115;SDS011;59991;52.140;5.428;2024-02-14T01:25:34;9.85;;;8.93;;
72115;SDS011;59991;52.140;5.428;2024-02-14T01:26:05;9.00;;;8.20;;
72115;SDS011;59991;52.140;5.428;2024-02-14T01:26:37;9.00;;;8.18;;
72115;SDS011;59991;52.140;5.428;2024-02-14T01:27:08;9.57;;;8.67;;
72115;SDS011;59991;52.140;5.428;2024-02-14T01:28:30;8.52;;;7.65;;
72115;SDS011;59991;52.140;5.428;2024-02-14T01:29:54;9.38;;;8.50;;
72115;SDS011;59991;52.140;5.428;2024-02-14T01:30:26;8.63;;;7.93;;
72115;SDS011;59991;52.140;5.428;2024-02-14T01:31:16;8.55;;;7.78;;
72115;SDS011;59991;52.140;5.428;2024-02-14T01:31:47;9.13;;;8.38;;
72115;SDS011;59991;52.140;5.428;2024-02-14T01:32:20;9.45;;;8.73;;
72115;SDS011;59991;52.140;5.428;2024-02-14T01:32:51;9.93;;;9.05;;
72115;SDS011;59991;52.140;5.428;2024-02-14T01:33:24;9.60;;;8.70;;
72115;SDS011;59991;52.140;5.428;2024-02-14T01:33:55;9.15;;;8.35;;
72115;SDS011;59991;52.140;5.428;2024-02-14T01:34:27;9.90;;;8.68;;
72115;SDS011;59991;52.140;5.428;2024-02-14T01:35:02;9.65;;;8.95;;
72115;SDS011;59991;52.140;5.428;2024-02-14T01:35:35;9.05;;;8.15;;
72115;SDS011;59991;52.140;5.428;2024-02-14T01:36:06;10.07;;;9.15;;
72115;SDS011;59991;52.140;5.428;2024-02-14T01:36:38;9.25;;;8.38;;
72115;SDS011;59991;52.140;5.428;2024-02-14T01:37:10;9.40;;;8.50;;
72115;SDS011;59991;52.140;5.428;2024-02-14T01:37:41;9.73;;;8.57;;
72115;SDS011;59991;52.140;5.428;2024-02-14T01:38:16;10.80;;;8.82;;
72115;SDS011;59991;52.140;5.428;2024-02-14T01:38:47;9.37;;;8.47;;
72115;SDS011;59991;52.140;5.428;2024-02-14T01:39:38;9.10;;;8.30;;
72115;SDS011;59991;52.140;5.428;2024-02-14T01:41:01;10.00;;;8.52;;
72115;SDS011;59991;52.140;5.428;2024-02-14T01:41:34;10.68;;;9.10;;
72115;SDS011;59991;52.140;5.428;2024-02-14T01:42:05;9.07;;;8.20;;
72115;SDS011;59991;52.140;5.428;2024-02-14T01:42:39;9.75;;;8.85;;
72115;SDS011;59991;52.140;5.428;2024-02-14T01:43:10;9.88;;;8.98;;
72115;SDS011;59991;52.140;5.428;2024-02-14T01:43:42;9.90;;;9.10;;
72115;SDS011;59991;52.140;5.428;2024-02-14T01:44:15;10.57;;;9.60;;
72115;SDS011;59991;52.140;5.428;2024-02-14T01:44:47;9.93;;;9.13;;
72115;SDS011;59991;52.140;5.428;2024-02-14T01:45:19;10.75;;;9.45;;
72115;SDS011;59991;52.140;5.428;2024-02-14T01:45:51;10.52;;;9.73;;
72115;SDS011;59991;52.140;5.428;2024-02-14T01:46:22;10.93;;;10.00;;
72115;SDS011;59991;52.140;5.428;2024-02-14T01:46:54;10.52;;;9.43;;
72115;SDS011;59991;52.140;5.428;2024-02-14T01:47:25;12.02;;;10.45;;
72115;SDS011;59991;52.140;5.428;2024-02-14T01:47:57;10.05;;;9.25;;
72115;SDS011;59991;52.140;5.428;2024-02-14T01:48:29;10.45;;;9.45;;
72115;SDS011;59991;52.140;5.428;2024-02-14T01:49:00;10.65;;;9.75;;
72115;SDS011;59991;52.140;5.428;2024-02-14T01:49:33;10.23;;;9.27;;
72115;SDS011;59991;52.140;5.428;2024-02-14T01:50:06;11.37;;;10.13;;
72115;SDS011;59991;52.140;5.428;2024-02-14T01:50:40;10.45;;;9.55;;
72115;SDS011;59991;52.140;5.428;2024-02-14T01:51:12;10.75;;;9.82;;
72115;SDS011;59991;52.140;5.428;2024-02-14T01:51:45;10.65;;;9.75;;
72115;SDS011;59991;52.140;5.428;2024-02-14T01:52:17;10.98;;;9.98;;
72115;SDS011;59991;52.140;5.428;2024-02-14T01:52:49;10.25;;;9.45;;
72115;SDS011;59991;52.140;5.428;2024-02-14T01:53:20;10.45;;;9.65;;
72115;SDS011;59991;52.140;5.428;2024-02-14T01:53:52;10.95;;;9.95;;
72115;SDS011;59991;52.140;5.428;2024-02-14T01:54:25;11.18;;;10.38;;
72115;SDS011;59991;52.140;5.428;2024-02-14T01:54:58;10.45;;;9.65;;
72115;SDS011;59991;52.140;5.428;2024-02-14T01:55:30;11.27;;;10.33;;
72115;SDS011;59991;52.140;5.428;2024-02-14T01:56:01;10.55;;;9.38;;
72115;SDS011;59991;52.140;5.428;2024-02-14T01:56:35;10.55;;;9.65;;
72115;SDS011;59991;52.140;5.428;2024-02-14T01:57:07;10.77;;;9.68;;
72115;SDS011;59991;52.140;5.428;2024-02-14T01:57:39;11.27;;;10.48;;
72115;SDS011;59991;52.140;5.428;2024-02-14T01:58:28;10.18;;;9.18;;
72115;SDS011;59991;52.140;5.428;2024-02-14T01:59:01;9.43;;;8.57;;
72115;SDS011;59991;52.140;5.428;2024-02-14T01:59:33;10.07;;;9.13;;
72115;SDS011;59991;52.140;5.428;2024-02-14T02:00:06;11.00;;;10.00;;
72115;SDS011;59991;52.140;5.428;2024-02-14T02:00:40;10.05;;;9.25;;
72115;SDS011;59991;52.140;5.428;2024-02-14T02:01:12;10.60;;;9.80;;
72115;SDS011;59991;52.140;5.428;2024-02-14T02:01:44;11.32;;;9.82;;
72115;SDS011;59991;52.140;5.428;2024-02-14T02:03:07;10.05;;;9.15;;
72115;SDS011;59991;52.140;5.428;2024-02-14T02:03:39;9.90;;;9.10;;
72115;SDS011;59991;52.140;5.428;2024-02-14T02:04:11;11.02;;;9.85;;
72115;SDS011;59991;52.140;5.428;2024-02-14T02:04:43;9.93;;;8.93;;
72115;SDS011;59991;52.140;5.428;2024-02-14T02:05:32;10.70;;;9.65;;
72115;SDS011;59991;52.140;5.428;2024-02-14T02:06:05;10.32;;;9.50;;
72115;SDS011;59991;52.140;5.428;2024-02-14T02:06:38;12.68;;;9.57;;
72115;SDS011;59991;52.140;5.428;2024-02-14T02:07:12;10.00;;;9.20;;
72115;SDS011;59991;52.140;5.428;2024-02-14T02:07:44;10.30;;;9.50;;
72115;SDS011;59991;52.140;5.428;2024-02-14T02:08:19;9.82;;;8.95;;
72115;SDS011;59991;52.140;5.428;2024-02-14T02:08:51;10.98;;;10.00;;
72115;SDS011;59991;52.140;5.428;2024-02-14T02:09:23;10.48;;;9.48;;
72115;SDS011;59991;52.140;5.428;2024-02-14T02:09:54;10.77;;;9.75;;
72115;SDS011;59991;52.140;5.428;2024-02-14T02:10:26;11.00;;;10.00;;
72115;SDS011;59991;52.140;5.428;2024-02-14T02:10:58;10.80;;;9.90;;
72115;SDS011;59991;52.140;5.428;2024-02-14T02:11:30;10.93;;;9.93;;
72115;SDS011;59991;52.140;5.428;2024-02-14T02:12:02;10.68;;;9.68;;
72115;SDS011;59991;52.140;5.428;2024-02-14T02:12:37;11.07;;;10.17;;
72115;SDS011;59991;52.140;5.428;2024-02-14T02:13:12;10.95;;;10.15;;
72115;SDS011;59991;52.140;5.428;2024-02-14T02:13:47;10.60;;;9.60;;
72115;SDS011;59991;52.140;5.428;2024-02-14T02:14:18;11.25;;;10.27;;
72115;SDS011;59991;52.140;5.428;2024-02-14T02:14:50;10.65;;;9.73;;
72115;SDS011;59991;52.140;5.428;2024-02-14T02:15:22;10.70;;;9.50;;
72115;SDS011;59991;52.140;5.428;2024-02-14T02:15:53;12.15;;;10.93;;
72115;SDS011;59991;52.140;5.428;2024-02-14T02:16:25;11.40;;;10.40;;
72115;SDS011;59991;52.140;5.428;2024-02-14T02:16:56;12.27;;;10.75;;
72115;SDS011;59991;52.140;5.428;2024-02-14T02:17:28;11.35;;;10.38;;
72115;SDS011;59991;52.140;5.428;2024-02-14T02:18:18;11.53;;;10.53;;
72115;SDS011;59991;52.140;5.428;2024-02-14T02:18:51;17.10;;;10.20;;
72115;SDS011;59991;52.140;5.428;2024-02-14T02:19:22;10.85;;;9.95;;
72115;SDS011;59991;52.140;5.428;2024-02-14T02:19:54;12.43;;;11.20;;
72115;SDS011;59991;52.140;5.428;2024-02-14T02:20:26;12.57;;;11.10;;
72115;SDS011;59991;52.140;5.428;2024-02-14T02:20:59;11.15;;;10.05;;
72115;SDS011;59991;52.140;5.428;2024-02-14T02:21:31;10.85;;;10.05;;
72115;SDS011;59991;52.140;5.428;2024-02-14T02:22:02;11.27;;;10.32;;
72115;SDS011;59991;52.140;5.428;2024-02-14T02:22:36;12.00;;;10.75;;
72115;SDS011;59991;52.140;5.428;2024-02-14T02:23:07;12.10;;;11.10;;
72115;SDS011;59991;52.140;5.428;2024-02-14T02:23:41;12.27;;;11.17;;
72115;SDS011;59991;52.140;5.428;2024-02-14T02:24:15;11.38;;;10.38;;
72115;SDS011;59991;52.140;5.428;2024-02-14T02:24:47;11.60;;;10.60;;
72115;SDS011;59991;52.140;5.428;2024-02-14T02:25:19;11.00;;;9.65;;
72115;SDS011;59991;52.140;5.428;2024-02-14T02:25:57;10.43;;;9.63;;
72115;SDS011;59991;52.140;5.428;2024-02-14T02:26:29;11.80;;;10.05;;
72115;SDS011;59991;52.140;5.428;2024-02-14T02:27:00;11.38;;;10.48;;
72115;SDS011;59991;52.140;5.428;2024-02-14T02:27:32;11.57;;;10.38;;
72115;SDS011;59991;52.140;5.428;2024-02-14T02:28:03;10.65;;;9.60;;
72115;SDS011;59991;52.140;5.428;2024-02-14T02:28:35;11.77;;;10.57;;
72115;SDS011;59991;52.140;5.428;2024-02-14T02:29:06;11.03;;;10.07;;
72115;SDS011;59991;52.140;5.428;2024-02-14T02:29:38;10.85;;;10.00;;
72115;SDS011;59991;52.140;5.428;2024-02-14T02:30:10;10.50;;;9.60;;
72115;SDS011;59991;52.140;5.428;2024-02-14T02:30:42;11.15;;;10.25;;
72115;SDS011;59991;52.140;5.428;2024-02-14T02:31:13;11.90;;;10.90;;
72115;SDS011;59991;52.140;5.428;2024-02-14T02:31:46;10.73;;;9.70;;
72115;SDS011;59991;52.140;5.428;2024-02-14T02:32:17;13.15;;;10.65;;
72115;SDS011;59991;52.140;5.428;2024-02-14T02:32:49;11.00;;;10.10;;
72115;SDS011;59991;52.140;5.428;2024-02-14T02:33:22;11.45;;;10.27;;
72115;SDS011;59991;52.140;5.428;2024-02-14T02:34:45;11.00;;;10.10;;
72115;SDS011;59991;52.140;5.428;2024-02-14T02:35:17;10.23;;;9.32;;
72115;SDS011;59991;52.140;5.428;2024-02-14T02:35:52;11.23;;;10.20;;
72115;SDS011;59991;52.140;5.428;2024-02-14T02:36:24;10.57;;;9.57;;
72115;SDS011;59991;52.140;5.428;2024-02-14T02:36:56;10.75;;;9.75;;
72115;SDS011;59991;52.140;5.428;2024-02-14T02:37:27;11.10;;;10.05;;
72115;SDS011;59991;52.140;5.428;2024-02-14T02:38:00;10.77;;;9.82;;
72115;SDS011;59991;52.140;5.428;2024-02-14T02:38:32;10.90;;;9.95;;
72115;SDS011;59991;52.140;5.428;2024-02-14T02:39:04;10.77;;;9.77;;
72115;SDS011;59991;52.140;5.428;2024-02-14T02:39:36;10.68;;;9.77;;
72115;SDS011;59991;52.140;5.428;2024-02-14T02:40:07;12.03;;;10.93;;
72115;SDS011;59991;52.140;5.428;2024-02-14T02:40:42;11.30;;;10.25;;
72115;SDS011;59991;52.140;5.428;2024-02-14T02:41:14;11.60;;;10.52;;
72115;SDS011;59991;52.140;5.428;2024-02-14T02:41:46;11.00;;;10.20;;
72115;SDS011;59991;52.140;5.428;2024-02-14T02:42:20;10.48;;;9.48;;
72115;SDS011;59991;52.140;5.428;2024-02-14T02:42:51;10.75;;;9.95;;
72115;SDS011;59991;52.140;5.428;2024-02-14T02:43:23;11.40;;;10.50;;
72115;SDS011;59991;52.140;5.428;2024-02-14T02:43:54;11.52;;;10.57;;
72115;SDS011;59991;52.140;5.428;2024-02-14T02:44:26;12.57;;;11.32;;
72115;SDS011;59991;52.140;5.428;2024-02-14T02:44:58;12.15;;;11.25;;
72115;SDS011;59991;52.140;5.428;2024-02-14T02:45:30;10.40;;;9.60;;
72115;SDS011;59991;52.140;5.428;2024-02-14T02:46:01;12.35;;;11.18;;
72115;SDS011;59991;52.140;5.428;2024-02-14T02:46:33;11.80;;;10.90;;
72115;SDS011;59991;52.140;5.428;2024-02-14T02:47:05;11.50;;;10.48;;
72115;SDS011;59991;52.140;5.428;2024-02-14T02:47:36;10.93;;;10.13;;
72115;SDS011;59991;52.140;5.428;2024-02-14T02:48:08;11.65;;;10.57;;
72115;SDS011;59991;52.140;5.428;2024-02-14T02:48:40;11.27;;;10.38;;
72115;SDS011;59991;52.140;5.428;2024-02-14T02:49:12;11.90;;;10.90;;
72115;SDS011;59991;52.140;5.428;2024-02-14T02:49:45;12.18;;;11.23;;
72115;SDS011;59991;52.140;5.428;2024-02-14T02:50:17;11.75;;;10.55;;
72115;SDS011;59991;52.140;5.428;2024-02-14T02:50:49;13.90;;;11.60;;
72115;SDS011;59991;52.140;5.428;2024-02-14T02:51:21;13.13;;;12.02;;
72115;SDS011;59991;52.140;5.428;2024-02-14T02:51:52;12.80;;;11.60;;
72115;SDS011;59991;52.140;5.428;2024-02-14T02:52:24;11.88;;;10.98;;
72115;SDS011;59991;52.140;5.428;2024-02-14T02:52:55;19.02;;;12.93;;
72115;SDS011;59991;52.140;5.428;2024-02-14T02:53:45;12.35;;;11.25;;
72115;SDS011;59991;52.140;5.428;2024-02-14T02:54:18;12.68;;;10.57;;
72115;SDS011;59991;52.140;5.428;2024-02-14T02:55:06;11.05;;;10.15;;
72115;SDS011;59991;52.140;5.428;2024-02-14T02:55:38;11.85;;;10.82;;
72115;SDS011;59991;52.140;5.428;2024-02-14T02:56:09;11.05;;;10.05;;
72115;SDS011;59991;52.140;5.428;2024-02-14T02:56:42;11.77;;;10.77;;
72115;SDS011;59991;52.140;5.428;2024-02-14T02:57:14;12.57;;;11.48;;
72115;SDS011;59991;52.140;5.428;2024-02-14T02:57:46;11.93;;;10.93;;
72115;SDS011;59991;52.140;5.428;2024-02-14T02:58:17;13.02;;;11.73;;
72115;SDS011;59991;52.140;5.428;2024-02-14T02:58:49;12.98;;;11.95;;
72115;SDS011;59991;52.140;5.428;2024-02-14T02:59:20;13.18;;;11.88;;
72115;SDS011;59991;52.140;5.428;2024-02-14T02:59:53;12.68;;;11.68;;
72115;SDS011;59991;52.140;5.428;2024-02-14T03:00:25;11.73;;;10.65;;
72115;SDS011;59991;52.140;5.428;2024-02-14T03:00:58;12.45;;;11.35;;
72115;SDS011;59991;52.140;5.428;2024-02-14T03:01:35;11.75;;;10.65;;
72115;SDS011;59991;52.140;5.428;2024-02-14T03:02:07;12.30;;;11.20;;
72115;SDS011;59991;52.140;5.428;2024-02-14T03:02:40;12.10;;;10.55;;
72115;SDS011;59991;52.140;5.428;2024-02-14T03:03:16;11.85;;;10.85;;
72115;SDS011;59991;52.140;5.428;2024-02-14T03:03:48;11.82;;;10.75;;
72115;SDS011;59991;52.140;5.428;2024-02-14T03:04:20;12.65;;;11.55;;
72115;SDS011;59991;52.140;5.428;2024-02-14T03:04:54;12.82;;;11.82;;
72115;SDS011;59991;52.140;5.428;2024-02-14T03:05:26;11.90;;;11.00;;
72115;SDS011;59991;52.140;5.428;2024-02-14T03:05:58;12.55;;;11.55;;
72115;SDS011;59991;52.140;5.428;2024-02-14T03:06:31;11.43;;;10.52;;
72115;SDS011;59991;52.140;5.428;2024-02-14T03:07:03;12.02;;;11.13;;
72115;SDS011;59991;52.140;5.428;2024-02-14T03:07:38;11.93;;;11.00;;
72115;SDS011;59991;52.140;5.428;2024-02-14T03:08:10;11.95;;;10.95;;
72115;SDS011;59991;52.140;5.428;2024-02-14T03:08:46;12.10;;;11.00;;
72115;SDS011;59991;52.140;5.428;2024-02-14T03:09:19;11.85;;;10.85;;
72115;SDS011;59991;52.140;5.428;2024-02-14T03:09:54;12.38;;;11.48;;
72115;SDS011;59991;52.140;5.428;2024-02-14T03:10:26;10.38;;;9.52;;
72115;SDS011;59991;52.140;5.428;2024-02-14T03:11:02;11.80;;;10.90;;
72115;SDS011;59991;52.140;5.428;2024-02-14T03:11:36;11.05;;;10.23;;
72115;SDS011;59991;52.140;5.428;2024-02-14T03:12:09;11.43;;;10.52;;
72115;SDS011;59991;52.140;5.428;2024-02-14T03:12:41;11.65;;;10.55;;
72115;SDS011;59991;52.140;5.428;2024-02-14T03:13:12;11.27;;;10.40;;
72115;SDS011;59991;52.140;5.428;2024-02-14T03:13:48;11.30;;;10.35;;
72115;SDS011;59991;52.140;5.428;2024-02-14T03:14:22;11.10;;;10.20;;
72115;SDS011;59991;52.140;5.428;2024-02-14T03:14:54;11.98;;;10.77;;
72115;SDS011;59991;52.140;5.428;2024-02-14T03:15:26;10.30;;;9.45;;
72115;SDS011;59991;52.140;5.428;2024-02-14T03:16:00;10.65;;;9.82;;
72115;SDS011;59991;52.140;5.428;2024-02-14T03:16:32;11.30;;;10.40;;
72115;SDS011;59991;52.140;5.428;2024-02-14T03:17:04;10.60;;;9.70;;
72115;SDS011;59991;52.140;5.428;2024-02-14T03:17:36;12.02;;;10.93;;
72115;SDS011;59991;52.140;5.428;2024-02-14T03:18:08;11.27;;;10.40;;
72115;SDS011;59991;52.140;5.428;2024-02-14T03:18:41;11.07;;;10.10;;
72115;SDS011;59991;52.140;5.428;2024-02-14T03:19:13;10.90;;;10.10;;
72115;SDS011;59991;52.140;5.428;2024-02-14T03:19:44;10.75;;;9.88;;
72115;SDS011;59991;52.140;5.428;2024-02-14T03:20:16;10.63;;;9.75;;
72115;SDS011;59991;52.140;5.428;2024-02-14T03:20:51;11.05;;;10.10;;
72115;SDS011;59991;52.140;5.428;2024-02-14T03:21:24;9.82;;;9.13;;
72115;SDS011;59991;52.140;5.428;2024-02-14T03:21:56;10.90;;;10.07;;
72115;SDS011;59991;52.140;5.428;2024-02-14T03:22:28;10.85;;;10.05;;
72115;SDS011;59991;52.140;5.428;2024-02-14T03:22:59;10.73;;;9.82;;
72115;SDS011;59991;52.140;5.428;2024-02-14T03:23:31;12.00;;;10.88;;
72115;SDS011;59991;52.140;5.428;2024-02-14T03:24:03;11.47;;;10.60;;
72115;SDS011;59991;52.140;5.428;2024-02-14T03:24:36;10.90;;;10.05;;
72115;SDS011;59991;52.140;5.428;2024-02-14T03:25:09;11.18;;;10.23;;
72115;SDS011;59991;52.140;5.428;2024-02-14T03:25:41;11.05;;;10.07;;
72115;SDS011;59991;52.140;5.428;2024-02-14T03:26:13;11.63;;;10.65;;
72115;SDS011;59991;52.140;5.428;2024-02-14T03:26:45;12.23;;;11.23;;